createdAt,value
2019-03-28T00:01:23.382Z,100456.33
2019-03-28T00:03:52.591Z,100463.38
2019-03-28T00:06:20.967Z,100465.20
2019-03-28T00:08:49.459Z,100454.78
2019-03-28T00:11:17.841Z,100468.86
2019-03-28T00:13:46.263Z,100467.09
2019-03-28T00:16:14.639Z,100466.25
2019-03-28T00:18:44.304Z,100455.60
2019-03-28T00:21:12.677Z,100459.20
2019-03-28T00:23:51.618Z,100460.98
2019-03-28T00:26:29.942Z,100461.04
2019-03-28T00:28:50.207Z,100458.38
2019-03-28T00:31:18.602Z,100458.38
2019-03-28T00:33:47.007Z,100446.94
2019-03-28T00:36:15.387Z,100452.27
2019-03-28T00:38:43.812Z,100447.78
2019-03-28T00:41:12.192Z,100453.17
2019-03-28T00:43:40.593Z,100447.78
2019-03-28T00:46:08.983Z,100445.19
2019-03-28T00:48:37.393Z,100446.06
2019-03-28T00:51:05.774Z,100441.67
2019-03-28T00:53:34.155Z,100440.80
2019-03-28T00:56:02.581Z,100435.47
2019-03-28T00:58:30.952Z,100435.53
2019-03-28T01:00:59.329Z,100428.42
2019-03-28T01:03:27.708Z,100427.48
2019-03-28T01:05:56.108Z,100426.76
2019-03-28T01:08:24.526Z,100429.48
2019-03-28T01:10:52.934Z,100424.16
2019-03-28T01:13:21.310Z,100429.48
2019-03-28T01:15:49.687Z,100433.07
2019-03-28T01:18:18.098Z,100433.92
2019-03-28T01:20:46.647Z,100433.07
2019-03-28T01:23:15.008Z,100434.85
2019-03-28T01:25:43.424Z,100432.19
2019-03-28T01:28:11.739Z,100432.19
2019-03-28T01:30:40.143Z,100429.53
2019-03-28T01:33:08.624Z,100436.64
2019-03-28T01:35:36.992Z,100431.31
2019-03-28T01:38:05.364Z,100430.41
2019-03-28T01:40:33.790Z,100429.53
2019-03-28T01:43:02.167Z,100432.19
2019-03-28T01:45:30.656Z,100426.87
2019-03-28T01:47:59.030Z,100427.75
2019-03-28T01:50:27.405Z,100422.34
2019-03-28T01:52:55.778Z,100423.22
2019-03-28T01:55:24.153Z,100424.16
2019-03-28T01:57:52.561Z,100424.16
2019-03-28T02:00:20.941Z,100421.44
2019-03-28T02:02:49.318Z,100411.63
2019-03-28T02:05:18.192Z,100417.89
2019-03-28T02:07:46.646Z,100413.39
2019-03-28T02:10:15.021Z,100418.72
2019-03-28T02:12:43.504Z,100414.30
2019-03-28T02:15:11.878Z,100413.39
2019-03-28T02:17:40.358Z,100416.05
2019-03-28T02:20:08.729Z,100411.58
2019-03-28T02:22:37.097Z,100416.84
2019-03-28T02:25:07.458Z,100407.19
2019-03-28T02:27:35.902Z,100410.73
2019-03-28T02:30:06.664Z,100404.47
2019-03-28T02:32:35.019Z,100407.19
2019-03-28T02:35:03.907Z,100408.91
2019-03-28T02:37:32.307Z,100408.86
2019-03-28T02:40:00.815Z,100415.11
2019-03-28T02:42:29.211Z,100410.73
2019-03-28T02:44:57.701Z,100415.96
2019-03-28T02:47:26.095Z,100420.44
2019-03-28T02:49:54.507Z,100417.78
2019-03-28T02:52:22.922Z,100417.84
2019-03-28T02:54:51.336Z,100413.39
2019-03-28T02:57:19.740Z,100410.73
2019-03-28T02:59:48.157Z,100408.91
2019-03-28T03:02:16.542Z,100402.75
2019-03-28T03:04:44.954Z,100408.06
2019-03-28T03:07:13.349Z,100408.97
2019-03-28T03:09:41.849Z,100406.31
2019-03-28T03:12:10.246Z,100410.78
2019-03-28T03:14:38.683Z,100408.12
2019-03-28T03:17:07.080Z,100408.97
2019-03-28T03:19:35.509Z,100406.31
2019-03-28T03:22:03.913Z,100404.59
2019-03-28T03:24:32.305Z,100409.91
2019-03-28T03:27:00.699Z,100409.03
2019-03-28T03:29:29.102Z,100415.23
2019-03-28T03:31:57.511Z,100419.67
2019-03-28T03:34:25.988Z,100410.84
2019-03-28T03:36:54.389Z,100413.51
2019-03-28T03:39:22.756Z,100416.17
2019-03-28T03:41:51.130Z,100421.44
2019-03-28T03:44:19.522Z,100415.23
2019-03-28T03:46:47.907Z,100413.45
2019-03-28T03:49:16.270Z,100405.47
2019-03-28T03:51:46.617Z,100404.59
2019-03-28T03:54:14.824Z,100412.57
2019-03-28T03:56:43.234Z,100411.63
2019-03-28T03:59:11.791Z,100406.31
2019-03-28T04:01:40.473Z,100401.87
2019-03-28T04:04:08.851Z,100394.81
2019-03-28T04:06:37.258Z,100401.87
2019-03-28T04:09:06.599Z,100398.33
2019-03-28T04:11:35.028Z,100386.89
2019-03-28T04:14:04.228Z,100392.16
2019-03-28T04:16:32.694Z,100395.72
2019-03-28T04:19:01.065Z,100388.67
2019-03-28T04:21:29.453Z,100395.81
2019-03-28T04:23:57.829Z,100397.59
2019-03-28T04:26:26.974Z,100390.49
2019-03-28T04:28:55.593Z,100387.83
2019-03-28T04:31:23.962Z,100390.49
2019-03-28T04:33:52.342Z,100391.34
2019-03-28T04:36:20.772Z,100393.16
2019-03-28T04:38:49.251Z,100395.81
2019-03-28T04:41:17.656Z,100393.94
2019-03-28T04:43:46.047Z,100397.54
2019-03-28T04:46:14.449Z,100399.27
2019-03-28T04:48:42.842Z,100399.27
2019-03-28T04:51:11.873Z,100404.59
2019-03-28T04:53:40.427Z,100388.62
2019-03-28T04:56:08.823Z,100399.27
2019-03-28T04:58:44.360Z,100401.87
2019-03-28T05:01:07.323Z,100396.60
2019-03-28T05:03:35.879Z,100397.54
2019-03-28T05:06:04.289Z,100400.98
2019-03-28T05:08:33.420Z,100395.66
2019-03-28T05:11:01.823Z,100400.98
2019-03-28T05:13:30.238Z,100400.98
2019-03-28T05:15:58.720Z,100408.06
2019-03-28T05:18:27.114Z,100408.06
2019-03-28T05:20:55.563Z,100409.80
2019-03-28T05:23:23.968Z,100410.64
2019-03-28T05:25:52.406Z,100414.18
2019-03-28T05:28:20.796Z,100416.84
2019-03-28T05:30:49.218Z,100418.62
2019-03-28T05:33:17.623Z,100416.84
2019-03-28T05:35:46.548Z,100420.44
2019-03-28T05:38:14.942Z,100423.05
2019-03-28T05:40:43.371Z,100426.61
2019-03-28T05:43:11.761Z,100428.42
2019-03-28T05:45:40.251Z,100423.10
2019-03-28T05:48:08.683Z,100424.88
2019-03-28T05:50:37.054Z,100424.88
2019-03-28T05:53:05.448Z,100430.20
2019-03-28T05:55:33.841Z,100433.75
2019-03-28T05:58:02.242Z,100427.60
2019-03-28T06:00:30.726Z,100426.76
2019-03-28T06:02:59.117Z,100425.88
2019-03-28T06:05:27.506Z,100432.08
2019-03-28T06:07:55.905Z,100429.42
2019-03-28T06:10:24.439Z,100427.66
2019-03-28T06:12:52.840Z,100427.66
2019-03-28T06:15:21.229Z,100433.92
2019-03-28T06:17:49.647Z,100434.80
2019-03-28T06:20:18.032Z,100439.24
2019-03-28T06:22:46.501Z,100437.41
2019-03-28T06:25:14.893Z,100442.73
2019-03-28T06:27:43.298Z,100440.91
2019-03-28T06:30:11.698Z,100451.50
2019-03-28T06:32:43.256Z,100441.73
2019-03-28T06:35:10.464Z,100433.69
2019-03-28T06:37:38.897Z,100438.95
2019-03-28T06:40:07.288Z,100438.02
2019-03-28T06:42:35.735Z,100446.80
2019-03-28T06:45:07.942Z,100440.56
2019-03-28T06:47:36.419Z,100438.69
2019-03-28T06:50:07.350Z,100439.52
2019-03-28T06:52:35.786Z,100439.42
2019-03-28T06:55:04.923Z,100452.67
2019-03-28T06:57:33.357Z,100458.00
2019-03-28T07:00:01.765Z,100461.52
2019-03-28T07:02:30.252Z,100460.58
2019-03-28T07:04:58.698Z,100465.84
2019-03-28T07:07:27.139Z,100469.39
2019-03-28T07:09:55.537Z,100471.96
2019-03-28T07:12:23.960Z,100471.96
2019-03-28T07:14:52.357Z,100463.13
2019-03-28T07:17:20.833Z,100467.52
2019-03-28T07:19:49.224Z,100460.34
2019-03-28T07:22:17.655Z,100462.08
2019-03-28T07:24:46.056Z,100467.34
2019-03-28T07:27:14.469Z,100465.52
2019-03-28T07:29:50.638Z,100466.34
2019-03-28T07:32:13.031Z,100466.34
2019-03-28T07:34:41.498Z,100469.86
2019-03-28T07:37:09.895Z,100468.06
2019-03-28T07:39:38.291Z,100460.96
2019-03-28T07:42:06.767Z,100466.23
2019-03-28T07:44:37.500Z,100466.23
2019-03-28T07:47:05.305Z,100467.08
2019-03-28T07:49:33.700Z,100469.73
2019-03-28T07:52:02.100Z,100464.47
2019-03-28T07:54:30.488Z,100467.13
2019-03-28T07:56:58.913Z,100477.78
2019-03-28T07:59:27.311Z,100464.47
2019-03-28T08:01:55.743Z,100470.73
2019-03-28T08:04:24.127Z,100479.66
2019-03-28T08:06:52.532Z,100483.26
2019-03-28T08:09:20.947Z,100478.78
2019-03-28T08:11:49.352Z,100476.17
2019-03-28T08:14:17.745Z,100477.11
2019-03-28T08:16:46.145Z,100483.38
2019-03-28T08:19:14.544Z,100478.98
2019-03-28T08:21:42.934Z,100484.22
2019-03-28T08:24:11.328Z,100483.38
2019-03-28T08:26:39.765Z,100484.37
2019-03-28T08:29:08.182Z,100488.81
2019-03-28T08:31:40.707Z,100488.93
2019-03-28T08:34:08.379Z,100488.93
2019-03-28T08:36:37.153Z,100486.33
2019-03-28T08:39:06.921Z,100481.88
2019-03-28T08:41:35.312Z,100485.36
2019-03-28T08:44:07.116Z,100481.88
2019-03-28T08:46:33.842Z,100488.93
2019-03-28T08:49:02.233Z,100481.88
2019-03-28T08:51:30.904Z,100483.61
2019-03-28T08:53:59.307Z,100479.16
2019-03-28T08:56:27.701Z,100481.77
2019-03-28T08:58:56.106Z,100491.48
2019-03-28T09:01:25.444Z,100498.47
2019-03-28T09:03:53.911Z,100495.75
2019-03-28T09:06:22.315Z,100496.62
2019-03-28T09:08:50.739Z,100500.08
2019-03-28T09:11:21.477Z,100498.30
2019-03-28T09:13:49.206Z,100501.81
2019-03-28T09:16:17.633Z,100500.96
2019-03-28T09:18:46.034Z,100502.69
2019-03-28T09:21:14.433Z,100506.23
2019-03-28T09:23:42.886Z,100511.55
2019-03-28T09:26:11.284Z,100511.50
2019-03-28T09:28:39.980Z,100517.67
2019-03-28T09:31:19.171Z,100513.28
2019-03-28T09:33:40.753Z,100509.62
2019-03-28T09:36:08.737Z,100502.45
2019-03-28T09:38:37.149Z,100505.97
2019-03-28T09:41:05.586Z,100501.46
2019-03-28T09:43:34.022Z,100504.06
2019-03-28T09:46:02.415Z,100495.14
2019-03-28T09:48:30.864Z,100497.74
2019-03-28T09:51:00.317Z,100498.47
2019-03-28T09:53:29.080Z,100494.02
2019-03-28T09:55:57.464Z,100497.47
2019-03-28T09:58:25.896Z,100496.48
2019-03-28T10:01:02.709Z,100501.69
2019-03-28T10:03:24.839Z,100500.63
2019-03-28T10:05:53.381Z,100503.17
2019-03-28T10:08:21.831Z,100498.63
2019-03-28T10:10:50.228Z,100510.98
2019-03-28T10:13:18.750Z,100501.17
2019-03-28T10:15:47.140Z,100506.39
2019-03-28T10:18:15.544Z,100507.17
2019-03-28T10:20:43.998Z,100496.52
2019-03-28T10:23:12.585Z,100505.33
2019-03-28T10:25:41.127Z,100509.78
2019-03-28T10:28:09.563Z,100504.45
2019-03-28T10:30:44.739Z,100506.11
2019-03-28T10:33:13.132Z,100510.47
2019-03-28T10:35:41.531Z,100510.31
2019-03-28T10:38:09.978Z,100507.59
2019-03-28T10:40:38.386Z,100505.75
2019-03-28T10:43:06.870Z,100507.47
2019-03-28T10:45:35.277Z,100507.41
2019-03-28T10:48:03.711Z,100508.35
2019-03-28T10:50:40.734Z,100512.68
2019-03-28T10:53:02.394Z,100512.68
2019-03-28T10:55:30.819Z,100508.95
2019-03-28T10:57:59.207Z,100516.00
2019-03-28T11:00:27.611Z,100514.13
2019-03-28T11:02:56.059Z,100506.94
2019-03-28T11:05:24.491Z,100507.77
2019-03-28T11:07:52.887Z,100509.52
2019-03-28T11:10:21.284Z,100521.09
2019-03-28T11:12:49.676Z,100517.52
2019-03-28T11:15:18.076Z,100522.84
2019-03-28T11:17:46.478Z,100522.84
2019-03-28T11:20:14.873Z,100529.91
2019-03-28T11:22:43.341Z,100522.84
2019-03-28T11:25:11.734Z,100525.58
2019-03-28T11:27:40.141Z,100530.91
2019-03-28T11:30:08.824Z,100527.30
2019-03-28T11:32:37.213Z,100528.18
2019-03-28T11:35:09.873Z,100522.84
2019-03-28T11:37:38.352Z,100519.33
2019-03-28T11:40:09.355Z,100520.91
2019-03-28T11:42:38.040Z,100520.97
2019-03-28T11:45:09.299Z,100522.69
2019-03-28T11:47:37.505Z,100519.12
2019-03-28T11:50:08.499Z,100513.72
2019-03-28T11:52:37.061Z,100516.23
2019-03-28T11:55:06.589Z,100517.89
2019-03-28T11:57:35.350Z,100513.38
2019-03-28T12:00:09.045Z,100520.44
2019-03-28T12:02:37.510Z,100519.43
2019-03-28T12:05:07.058Z,100513.09
2019-03-28T12:07:35.524Z,100510.23
2019-03-28T12:10:06.597Z,100505.65
2019-03-28T12:12:34.971Z,100508.22
2019-03-28T12:15:03.905Z,100510.69
2019-03-28T12:17:32.294Z,100508.67
2019-03-28T12:20:00.758Z,100502.20
2019-03-28T12:22:29.154Z,100499.94
2019-03-28T12:24:57.567Z,100501.98
2019-03-28T12:27:25.961Z,100502.11
2019-03-28T12:29:54.394Z,100502.89
2019-03-28T12:32:22.816Z,100494.29
2019-03-28T12:34:51.241Z,100494.44
2019-03-28T12:37:19.668Z,100496.33
2019-03-28T12:39:48.087Z,100490.08
2019-03-28T12:42:16.494Z,100493.58
2019-03-28T12:44:56.500Z,100485.53
2019-03-28T12:47:15.070Z,100488.37
2019-03-28T12:49:43.497Z,100482.70
2019-03-28T12:52:11.885Z,100483.81
2019-03-28T12:54:44.194Z,100484.85
2019-03-28T12:57:14.470Z,100490.69
2019-03-28T12:59:42.338Z,100489.40
2019-03-28T13:02:10.850Z,100491.86
2019-03-28T13:04:39.296Z,100493.37
2019-03-28T13:07:07.701Z,100487.48
2019-03-28T13:09:37.819Z,100491.57
2019-03-28T13:12:07.723Z,100493.09
2019-03-28T13:14:36.137Z,100487.79
2019-03-28T13:17:04.547Z,100481.41
2019-03-28T13:19:32.961Z,100482.66
2019-03-28T13:22:02.437Z,100481.09
2019-03-28T13:24:30.982Z,100487.30
2019-03-28T13:26:59.390Z,100483.23
2019-03-28T13:29:27.805Z,100487.79
2019-03-28T13:31:56.214Z,100477.97
2019-03-28T13:34:24.653Z,100486.23
2019-03-28T13:36:53.123Z,100492.74
2019-03-28T13:39:21.556Z,100485.66
2019-03-28T13:41:49.965Z,100490.66
2019-03-28T13:44:18.441Z,100492.11
2019-03-28T13:46:46.855Z,100489.04
2019-03-28T13:49:15.262Z,100489.50
2019-03-28T13:51:43.681Z,100494.77
2019-03-28T13:54:12.157Z,100495.29
2019-03-28T13:56:40.560Z,100499.40
2019-03-28T13:59:08.974Z,100501.55
2019-03-28T14:01:37.389Z,100496.47
2019-03-28T14:04:05.798Z,100499.98
2019-03-28T14:06:34.241Z,100495.31
2019-03-28T14:09:02.652Z,100499.28
2019-03-28T14:11:31.056Z,100493.32
2019-03-28T14:13:59.465Z,100501.55
2019-03-28T14:16:27.894Z,100500.70
2019-03-28T14:18:56.296Z,100497.83
2019-03-28T14:21:24.703Z,100496.80
2019-03-28T14:23:53.210Z,100497.94
2019-03-28T14:26:21.626Z,100491.73
2019-03-28T14:28:50.426Z,100492.78
2019-03-28T14:31:19.037Z,100487.01
2019-03-28T14:33:47.448Z,100490.12
2019-03-28T14:36:15.860Z,100486.05
2019-03-28T14:38:44.253Z,100497.48
2019-03-28T14:41:12.663Z,100495.25
2019-03-28T14:43:41.065Z,100501.95
2019-03-28T14:46:09.467Z,100506.27
2019-03-28T14:48:37.959Z,100494.36
2019-03-28T14:51:06.400Z,100493.05
2019-03-28T14:53:34.836Z,100502.27
2019-03-28T14:56:03.397Z,100498.11
2019-03-28T14:58:32.521Z,100495.86
2019-03-28T15:01:02.752Z,100496.19
2019-03-28T15:03:31.161Z,100492.02
2019-03-28T15:05:59.595Z,100494.05
2019-03-28T15:08:27.996Z,100497.84
2019-03-28T15:10:56.411Z,100492.83
2019-03-28T15:13:24.837Z,100494.02
2019-03-28T15:15:54.456Z,100502.27
2019-03-28T15:18:22.912Z,100505.17
2019-03-28T15:20:51.343Z,100505.59
2019-03-28T15:23:19.763Z,100511.34
2019-03-28T15:25:48.189Z,100511.64
2019-03-28T15:28:16.588Z,100523.51
2019-03-28T15:30:45.090Z,100523.84
2019-03-28T15:33:13.482Z,100526.80
2019-03-28T15:35:41.899Z,100522.73
2019-03-28T15:38:10.285Z,100523.79
2019-03-28T15:40:38.700Z,100521.41
2019-03-28T15:43:07.105Z,100525.17
2019-03-28T15:45:35.543Z,100525.31
2019-03-28T15:48:03.939Z,100524.68
2019-03-28T15:50:32.377Z,100525.77
2019-03-28T15:53:00.840Z,100534.73
2019-03-28T15:55:29.263Z,100528.66
2019-03-28T15:57:57.663Z,100535.02
2019-03-28T16:00:28.951Z,100533.44
2019-03-28T16:02:56.291Z,100540.67
2019-03-28T16:05:24.714Z,100538.14
2019-03-28T16:07:53.099Z,100536.48
2019-03-28T16:10:21.498Z,100538.34
2019-03-28T16:12:49.902Z,100544.70
2019-03-28T16:15:18.321Z,100538.58
2019-03-28T16:17:47.563Z,100537.78
2019-03-28T16:20:16.199Z,100541.39
2019-03-28T16:22:44.631Z,100550.34
2019-03-28T16:25:13.031Z,100546.02
2019-03-28T16:27:41.453Z,100547.88
2019-03-28T16:30:12.188Z,100550.62
2019-03-28T16:32:43.037Z,100560.59
2019-03-28T16:35:11.451Z,100564.20
2019-03-28T16:37:39.861Z,100566.94
2019-03-28T16:40:08.264Z,100570.52
2019-03-28T16:42:36.661Z,100574.27
2019-03-28T16:45:07.295Z,100577.88
2019-03-28T16:47:35.690Z,100580.63
2019-03-28T16:50:05.666Z,100582.54
2019-03-28T16:52:34.073Z,100581.66
2019-03-28T16:55:02.476Z,100578.28
2019-03-28T16:57:30.875Z,100586.35
2019-03-28T16:59:59.278Z,100584.69
2019-03-28T17:02:27.678Z,100597.22
2019-03-28T17:04:56.063Z,100590.22
2019-03-28T17:07:25.623Z,100591.23
2019-03-28T17:09:54.161Z,100589.51
2019-03-28T17:12:22.559Z,100585.11
2019-03-28T17:14:51.736Z,100578.96
2019-03-28T17:17:20.234Z,100580.84
2019-03-28T17:19:49.097Z,100579.97
2019-03-28T17:22:20.192Z,100584.42
2019-03-28T17:24:48.576Z,100580.98
2019-03-28T17:27:16.979Z,100585.44
2019-03-28T17:29:45.496Z,100580.16
2019-03-28T17:32:13.895Z,100591.78
2019-03-28T17:34:45.747Z,100582.98
2019-03-28T17:37:12.419Z,100588.33
2019-03-28T17:39:40.805Z,100582.98
2019-03-28T17:42:09.222Z,100594.57
2019-03-28T17:44:37.611Z,100599.97
2019-03-28T17:47:07.673Z,100608.92
2019-03-28T17:49:36.077Z,100604.52
2019-03-28T17:52:04.515Z,100602.80
2019-03-28T17:54:32.987Z,100601.92
2019-03-28T17:57:01.472Z,100606.47
2019-03-28T17:59:31.132Z,100608.32
2019-03-28T18:01:59.580Z,100613.66
2019-03-28T18:04:27.975Z,100604.87
2019-03-28T18:06:56.573Z,100613.78
2019-03-28T18:09:24.986Z,100614.66
2019-03-28T18:11:53.398Z,100622.72
2019-03-28T18:14:21.808Z,100623.66
2019-03-28T18:16:50.231Z,100629.94
2019-03-28T18:19:18.617Z,100640.61
2019-03-28T18:21:47.048Z,100635.34
2019-03-28T18:24:15.630Z,100642.46
2019-03-28T18:26:44.257Z,100641.58
2019-03-28T18:29:12.649Z,100644.34
2019-03-28T18:31:50.442Z,100645.25
2019-03-28T18:34:12.453Z,100643.52
2019-03-28T18:36:41.071Z,100648.91
2019-03-28T18:39:09.452Z,100655.19
2019-03-28T18:41:38.770Z,100656.07
2019-03-28T18:44:07.239Z,100651.64
2019-03-28T18:46:35.636Z,100655.19
2019-03-28T18:49:04.204Z,100665.92
2019-03-28T18:51:33.205Z,100664.19
2019-03-28T18:54:01.610Z,100676.59
2019-03-28T18:56:29.985Z,100679.25
2019-03-28T18:58:58.384Z,100671.31
2019-03-28T19:01:26.780Z,100673.09
2019-03-28T19:03:55.227Z,100674.92
2019-03-28T19:06:23.630Z,100680.20
2019-03-28T19:08:52.100Z,100682.04
2019-03-28T19:11:20.495Z,100685.64
2019-03-28T19:13:49.129Z,100685.64
2019-03-28T19:16:17.948Z,100683.92
2019-03-28T19:18:46.382Z,100683.92
2019-03-28T19:21:14.787Z,100689.25
2019-03-28T19:23:43.201Z,100690.16
2019-03-28T19:26:11.630Z,100692.83
2019-03-28T19:28:40.078Z,100692.83
2019-03-28T19:31:10.948Z,100696.43
2019-03-28T19:33:39.351Z,100697.37
2019-03-28T19:36:07.736Z,100687.64
2019-03-28T19:38:36.134Z,100685.88
2019-03-28T19:41:04.534Z,100691.30
2019-03-28T19:43:32.936Z,100692.16
2019-03-28T19:46:01.429Z,100690.42
2019-03-28T19:48:29.854Z,100686.03
2019-03-28T19:50:58.260Z,100685.15
2019-03-28T19:53:26.667Z,100682.55
2019-03-28T19:55:55.197Z,100694.15
2019-03-28T19:58:23.654Z,100702.14
2019-03-28T20:00:52.053Z,100693.27
2019-03-28T20:03:23.309Z,100695.20
2019-03-28T20:05:50.691Z,100705.87
2019-03-28T20:08:19.094Z,100700.61
2019-03-28T20:10:47.547Z,100708.61
2019-03-28T20:13:16.053Z,100707.82
2019-03-28T20:15:44.458Z,100705.22
2019-03-28T20:18:12.857Z,100700.88
2019-03-28T20:20:41.328Z,100700.93
2019-03-28T20:23:09.737Z,100703.72
2019-03-28T20:25:38.139Z,100706.44
2019-03-28T20:28:06.565Z,100709.16
2019-03-28T20:30:34.967Z,100713.64
2019-03-28T20:33:03.401Z,100721.69
2019-03-28T20:35:31.795Z,100716.42
2019-03-28T20:38:00.221Z,100715.59
2019-03-28T20:40:28.625Z,100713.86
2019-03-28T20:42:58.459Z,100715.80
2019-03-28T20:45:26.916Z,100720.30
2019-03-28T20:47:55.356Z,100717.69
2019-03-28T20:50:23.878Z,100726.62
2019-03-28T20:52:52.366Z,100726.73
2019-03-28T20:55:20.755Z,100725.88
2019-03-28T20:57:49.145Z,100725.98
2019-03-28T21:00:35.848Z,100725.11
2019-03-28T21:03:04.396Z,100723.38
2019-03-28T21:05:32.947Z,100725.25
2019-03-28T21:08:01.470Z,100730.69
2019-03-28T21:10:33.155Z,100730.80
2019-03-28T21:13:00.181Z,100728.18
2019-03-28T21:15:28.569Z,100734.45
2019-03-28T21:17:56.984Z,100735.37
2019-03-28T21:20:25.385Z,100738.09
2019-03-28T21:22:53.783Z,100732.82
2019-03-28T21:25:22.259Z,100747.12
2019-03-28T21:27:51.266Z,100758.77
2019-03-28T21:30:20.507Z,100752.56
2019-03-28T21:32:55.190Z,100755.27
2019-03-28T21:35:19.292Z,100763.31
2019-03-28T21:37:47.688Z,100763.31
2019-03-28T21:40:16.140Z,100761.59
2019-03-28T21:42:44.529Z,100764.25
2019-03-28T21:45:13.001Z,100760.79
2019-03-28T21:47:41.436Z,100753.75
2019-03-28T21:50:10.408Z,100759.08
2019-03-28T21:52:38.811Z,100761.83
2019-03-28T21:55:11.383Z,100762.73
2019-03-28T21:57:38.625Z,100757.45
2019-03-28T22:00:07.429Z,100767.26
2019-03-28T22:02:36.020Z,100769.09
2019-03-28T22:05:05.992Z,100768.24
2019-03-28T22:07:34.387Z,100770.95
2019-03-28T22:10:02.821Z,100773.62
2019-03-28T22:12:31.214Z,100770.17
2019-03-28T22:14:59.663Z,100771.94
2019-03-28T22:17:28.089Z,100779.09
2019-03-28T22:19:56.707Z,100776.48
2019-03-28T22:22:28.194Z,100773.82
2019-03-28T22:24:57.332Z,100782.73
2019-03-28T22:27:26.748Z,100776.58
2019-03-28T22:29:55.146Z,100781.91
2019-03-28T22:32:23.537Z,100796.12
2019-03-28T22:34:52.019Z,100787.33
2019-03-28T22:37:20.410Z,100794.39
2019-03-28T22:39:48.828Z,100794.39
2019-03-28T22:42:17.200Z,100787.38
2019-03-28T22:44:45.609Z,100794.48
2019-03-28T22:47:14.091Z,100785.59
2019-03-28T22:49:42.493Z,100799.81
2019-03-28T22:52:10.893Z,100793.63
2019-03-28T22:54:39.303Z,100796.34
2019-03-28T22:57:07.700Z,100803.50
2019-03-28T22:59:36.104Z,100793.78
2019-03-28T23:02:04.966Z,100797.33
2019-03-28T23:04:33.361Z,100796.45
2019-03-28T23:07:11.003Z,100789.39
2019-03-28T23:09:31.897Z,100790.32
2019-03-28T23:12:00.284Z,100795.70
2019-03-28T23:14:28.687Z,100796.54
2019-03-28T23:16:57.086Z,100785.89
2019-03-28T23:19:25.537Z,100788.56
2019-03-28T23:21:53.920Z,100785.09
2019-03-28T23:24:22.350Z,100786.03
2019-03-28T23:26:50.759Z,100783.41
2019-03-28T23:29:19.178Z,100793.18
2019-03-28T23:31:50.644Z,100779.07
2019-03-28T23:34:17.758Z,100786.17
2019-03-28T23:36:46.277Z,100781.73
2019-03-28T23:39:14.697Z,100787.15
2019-03-28T23:41:43.094Z,100787.95
2019-03-28T23:44:11.523Z,100783.61
2019-03-28T23:46:40.028Z,100780.02
2019-03-28T23:49:08.473Z,100779.16
2019-03-28T23:51:36.868Z,100776.55
2019-03-28T23:54:05.259Z,100777.40
2019-03-28T23:56:33.666Z,100779.22
2019-03-28T23:59:02.072Z,100773.94
